Time;durP1;ratioP1;P1;durP2;ratioP2;P2;SDS_P1;SDS_P2;PMS_P1;PMS_P2;Temp;Humidity;BMP_temperature;BMP_pressure;BME280_temperature;BME280_humidity;BME280_pressure;Samples;Min_cycle;Max_cycle;Signal;HPM_P1;HPM_P2
2022/01/18 00:02:24;;;;;;;38.25;17.50;;;154.50;2176.00;;;;;;5032645;28;20061;-62
2022/01/18 00:04:50;;;;;;;67.47;37.47;;;154.40;2176.00;;;;;;5032251;28;20120;-62
2022/01/18 00:07:16;;;;;;;49.35;26.23;;;154.30;2150.40;;;;;;5031319;28;20125;-61
2022/01/18 00:09:41;;;;;;;10.65;5.40;;;154.20;2150.40;;;;;;5032467;28;20040;-61
2022/01/18 00:15:40;;;;;;;17.38;9.48;;;154.10;2099.20;;;;;;5031592;28;20095;-62
2022/01/18 00:17:54;;;;;;;21.05;11.55;;;154.00;2124.80;;;;;;5033056;28;20041;-57
2022/01/18 00:20:32;;;;;;;26.17;14.07;;;153.90;1996.80;;;;;;5032246;28;20036;-63
2022/01/18 00:22:58;;;;;;;33.60;20.58;;;153.80;1996.80;;;;;;5031180;28;20395;-63
2022/01/18 00:25:24;;;;;;;25.73;14.93;;;153.70;2022.40;;;;;;5032181;28;20048;-62
2022/01/18 00:27:49;;;;;;;17.92;10.48;;;153.60;2048.00;;;;;;5031905;28;20024;-62
2022/01/18 00:35:47;;;;;;;5.65;3.05;;;128.90;2099.20;;;;;;5050132;28;20234;-61
2022/01/18 00:38:29;;;;;;;5.40;2.83;;;128.80;2124.80;;;;;;5049674;28;20110;-59
2022/01/18 00:40:55;;;;;;;7.93;2.92;;;128.70;2124.80;;;;;;5049620;28;20025;-58
2022/01/18 00:43:20;;;;;;;8.02;4.28;;;128.60;2124.80;;;;;;5049158;28;20126;-57
2022/01/18 00:45:46;;;;;;;4.68;2.95;;;128.40;2150.40;;;;;;5049550;28;20537;-59
2022/01/18 00:48:12;;;;;;;10.05;3.95;;;128.40;2150.40;;;;;;5049566;28;20021;-62
2022/01/18 00:50:39;;;;;;;54.85;26.05;;;128.40;2124.80;;;;;;5049283;28;20033;-60
2022/01/18 00:53:12;;;;;;;28.50;12.45;;;128.30;2124.80;;;;;;5049510;28;20032;-60
2022/01/18 00:55:48;;;;;;;7.05;4.53;;;128.30;2150.40;;;;;;5049426;28;20067;-60
2022/01/18 00:58:15;;;;;;;6.57;3.63;;;128.20;2150.40;;;;;;5049417;28;20446;-66
2022/01/18 01:00:41;;;;;;;9.60;4.15;;;128.20;2124.80;;;;;;5048758;28;20059;-62
2022/01/18 01:03:07;;;;;;;3.22;1.90;;;128.10;2150.40;;;;;;5049023;28;20037;-60
2022/01/18 01:05:34;;;;;;;4.97;2.13;;;128.10;2124.80;;;;;;5049113;28;20518;-61
2022/01/18 01:08:01;;;;;;;3.45;1.73;;;128.10;2124.80;;;;;;5049041;28;20481;-58
2022/01/18 01:10:27;;;;;;;3.53;1.40;;;128.00;2150.40;;;;;;5037715;28;20040;-62
2022/01/18 01:12:53;;;;;;;3.10;1.30;;;103.30;2124.80;;;;;;5031084;28;20028;-61
2022/01/18 01:15:21;;;;;;;17.58;6.90;;;103.30;2150.40;;;;;;5031075;28;20039;-59
2022/01/18 01:36:41;;;;;;;8.60;4.45;;;103.10;2201.60;;;;;;5030885;28;20025;-61
2022/01/18 01:42:15;;;;;;;6.95;3.63;;;103.00;2227.20;;;;;;5030796;28;20240;-62
2022/01/18 01:44:48;;;;;;;4.53;2.40;;;103.00;2227.20;;;;;;5030757;28;20045;-62
2022/01/18 01:47:22;;;;;;;5.18;2.78;;;102.90;2227.20;;;;;;5030733;28;20029;-60
2022/01/18 01:49:49;;;;;;;10.13;5.30;;;102.90;2227.20;;;;;;5030474;28;20391;-62
2022/01/18 01:52:16;;;;;;;12.07;4.75;;;102.80;2227.20;;;;;;5030870;28;20029;-63
2022/01/18 01:54:42;;;;;;;5.90;2.92;;;102.80;2227.20;;;;;;5030587;28;20072;-60
2022/01/18 01:57:08;;;;;;;6.30;2.83;;;102.80;2227.20;;;;;;5030424;28;20060;-59
2022/01/18 01:59:35;;;;;;;6.78;4.15;;;102.80;2227.20;;;;;;5030525;28;20025;-62
2022/01/18 02:02:01;;;;;;;12.02;5.35;;;102.80;2227.20;;;;;;5030271;28;20040;-61
2022/01/18 02:04:27;;;;;;;9.57;5.20;;;102.70;2227.20;;;;;;5030250;28;20052;-62
2022/01/18 02:06:53;;;;;;;11.90;6.90;;;102.80;2227.20;;;;;;5030908;28;20045;-63
2022/01/18 02:09:18;;;;;;;8.68;3.80;;;102.80;2227.20;;;;;;5030776;28;20025;-62
2022/01/18 02:11:46;;;;;;;8.38;4.30;;;102.70;2176.00;;;;;;5030005;28;20029;-61
2022/01/18 02:14:14;;;;;;;15.80;6.68;;;102.70;2201.60;;;;;;5030553;28;20486;-62
2022/01/18 02:22:11;;;;;;;8.95;4.68;;;102.80;2176.00;;;;;;5030329;28;20048;-62
2022/01/18 02:24:36;;;;;;;15.73;8.75;;;102.70;2201.60;;;;;;5029933;28;20041;-61
2022/01/18 02:27:02;;;;;;;6.80;3.55;;;102.70;2201.60;;;;;;5030093;28;20075;-61
2022/01/18 02:29:28;;;;;;;9.13;3.88;;;102.70;2227.20;;;;;;5030085;28;20475;-62
2022/01/18 02:31:55;;;;;;;10.60;4.22;;;102.70;2227.20;;;;;;5030136;28;20104;-61
2022/01/18 02:34:22;;;;;;;14.05;5.75;;;102.70;2227.20;;;;;;5030246;28;20037;-61
2022/01/18 02:36:48;;;;;;;11.07;5.10;;;102.60;2227.20;;;;;;5029906;28;20057;-61
2022/01/18 02:39:19;;;;;;;5.22;2.47;;;102.50;2227.20;;;;;;5030180;28;20444;-61
2022/01/18 02:41:52;;;;;;;8.70;3.83;;;102.60;2227.20;;;;;;5029998;28;20021;-58
2022/01/18 02:44:18;;;;;;;7.15;4.13;;;102.50;2227.20;;;;;;5029649;28;20044;-62
2022/01/18 02:46:44;;;;;;;9.27;5.03;;;102.50;2227.20;;;;;;5030062;28;20017;-62
2022/01/18 02:49:10;;;;;;;14.80;7.63;;;102.60;2227.20;;;;;;5029824;28;20031;-62
2022/01/18 02:51:35;;;;;;;12.93;7.63;;;102.60;2227.20;;;;;;5030078;28;20075;-62
2022/01/18 02:54:04;;;;;;;9.50;4.45;;;102.60;2227.20;;;;;;5030153;28;20109;-61
2022/01/18 02:56:37;;;;;;;9.32;6.55;;;102.60;2227.20;;;;;;5029800;28;20025;-63
2022/01/18 03:04:23;;;;;;;12.20;6.30;;;102.60;2227.20;;;;;;5030001;28;20075;-62
2022/01/18 03:06:49;;;;;;;47.35;19.25;;;102.50;2227.20;;;;;;5029594;28;20026;-62
2022/01/18 03:09:15;;;;;;;11.30;5.78;;;102.50;2227.20;;;;;;5029871;28;20037;-62
2022/01/18 03:11:41;;;;;;;6.15;3.45;;;102.50;2227.20;;;;;;5029774;28;20030;-62
2022/01/18 03:14:07;;;;;;;8.00;3.33;;;102.40;2227.20;;;;;;5029708;28;20052;-63
2022/01/18 03:16:33;;;;;;;10.35;4.45;;;102.40;2227.20;;;;;;5029777;28;20025;-63
2022/01/18 03:18:58;;;;;;;7.72;4.47;;;77.70;2227.20;;;;;;5029722;28;20111;-64
2022/01/18 03:21:24;;;;;;;4.53;2.65;;;77.70;2227.20;;;;;;5030025;28;20025;-63
2022/01/18 03:23:54;;;;;;;4.93;2.15;;;77.70;2227.20;;;;;;5032365;28;20518;-63
2022/01/18 03:26:30;;;;;;;11.82;5.40;;;77.50;2227.20;;;;;;5033198;28;20037;-63
2022/01/18 03:28:56;;;;;;;7.28;2.45;;;77.60;2227.20;;;;;;5033057;28;20022;-63
2022/01/18 03:31:22;;;;;;;7.13;3.50;;;77.50;2227.20;;;;;;5033188;28;20041;-63
2022/01/18 03:33:48;;;;;;;8.23;3.22;;;77.50;2227.20;;;;;;5033092;28;20041;-59
2022/01/18 03:36:13;;;;;;;5.30;2.15;;;77.50;2227.20;;;;;;5033253;28;20030;-63
2022/01/18 03:38:39;;;;;;;7.30;3.88;;;77.50;2227.20;;;;;;5033046;28;20032;-64
2022/01/18 03:41:06;;;;;;;4.75;2.20;;;77.40;2227.20;;;;;;5033034;28;20471;-64
2022/01/18 03:43:35;;;;;;;6.65;3.47;;;77.40;2227.20;;;;;;5032861;28;20035;-60
2022/01/18 03:46:02;;;;;;;5.85;2.75;;;77.40;2227.20;;;;;;5033223;28;20033;-62
2022/01/18 03:48:38;;;;;;;6.07;3.22;;;77.30;2227.20;;;;;;5032707;28;20033;-63
2022/01/18 03:51:06;;;;;;;7.70;2.97;;;77.30;2227.20;;;;;;5032911;28;20111;-62
2022/01/18 03:53:33;;;;;;;10.10;4.22;;;77.30;2227.20;;;;;;5032942;28;20028;-63
2022/01/18 03:55:59;;;;;;;5.93;2.90;;;77.20;2227.20;;;;;;5032778;28;20438;-62
2022/01/18 03:58:25;;;;;;;13.52;7.10;;;77.20;2227.20;;;;;;5032664;28;20029;-62
2022/01/18 04:00:51;;;;;;;18.90;8.95;;;77.20;2227.20;;;;;;5032604;28;20041;-62
2022/01/18 04:03:18;;;;;;;13.32;6.72;;;77.20;2227.20;;;;;;5032755;28;20053;-63
2022/01/18 04:05:43;;;;;;;5.28;3.05;;;77.10;2227.20;;;;;;5032483;28;20040;-63
2022/01/18 04:08:09;;;;;;;5.88;2.35;;;77.10;2227.20;;;;;;5032242;28;20045;-63
2022/01/18 04:10:35;;;;;;;4.32;2.50;;;77.10;2227.20;;;;;;5032507;28;20033;-64
2022/01/18 04:13:02;;;;;;;4.30;2.20;;;77.10;2227.20;;;;;;5032614;28;20018;-64
2022/01/18 04:15:29;;;;;;;8.57;5.03;;;77.00;2227.20;;;;;;5032443;28;20468;-64
2022/01/18 04:28:51;;;;;;;16.15;7.88;;;77.00;2227.20;;;;;;5049705;28;20449;-58
2022/01/18 04:31:17;;;;;;;17.58;8.20;;;77.00;2227.20;;;;;;5049525;28;20044;-63
2022/01/18 04:33:43;;;;;;;9.40;4.10;;;77.00;2227.20;;;;;;5049602;28;20033;-62
2022/01/18 04:36:09;;;;;;;11.43;6.28;;;77.00;2227.20;;;;;;5049266;28;20352;-62
2022/01/18 04:38:35;;;;;;;9.82;4.80;;;77.00;2227.20;;;;;;5049806;28;20530;-62
2022/01/18 04:41:11;;;;;;;5.55;3.05;;;76.90;2227.20;;;;;;5049838;28;20406;-62
2022/01/18 04:44:08;;;;;;;13.15;5.13;;;76.90;2227.20;;;;;;5049314;28;20122;-60
2022/01/18 04:49:17;;;;;;;10.50;5.32;;;76.90;2227.20;;;;;;5049477;28;20064;-63
2022/01/18 04:51:46;;;;;;;7.75;3.80;;;76.80;2227.20;;;;;;5049603;28;20061;-62
2022/01/18 04:54:12;;;;;;;6.07;3.78;;;76.80;2227.20;;;;;;5049584;28;20031;-58
2022/01/18 04:59:06;;;;;;;6.90;4.07;;;76.80;2227.20;;;;;;5031747;28;20021;-64
2022/01/18 05:01:33;;;;;;;21.10;8.40;;;52.10;2227.20;;;;;;5031580;28;20041;-62
2022/01/18 05:03:58;;;;;;;14.68;5.55;;;52.10;2227.20;;;;;;5031708;28;20041;-61
2022/01/18 05:06:24;;;;;;;11.85;5.78;;;52.10;2227.20;;;;;;5031705;28;20029;-62
2022/01/18 05:08:50;;;;;;;20.80;8.88;;;52.10;2227.20;;;;;;5030983;28;20068;-61
2022/01/18 05:11:19;;;;;;;12.35;7.18;;;52.10;2227.20;;;;;;5031189;28;20101;-59
2022/01/18 05:14:47;;;;;;;14.65;5.78;;;52.10;2227.20;;;;;;5031225;28;20022;-62
2022/01/18 05:16:49;;;;;;;17.35;7.95;;;52.10;2227.20;;;;;;5034802;28;20036;-62
2022/01/18 05:24:31;;;;;;;15.18;6.88;;;52.10;2227.20;;;;;;5031343;28;20040;-62
2022/01/18 05:26:59;;;;;;;12.13;4.63;;;52.00;2227.20;;;;;;5030891;28;20018;-60
2022/01/18 05:29:25;;;;;;;13.02;6.15;;;52.10;2227.20;;;;;;5031094;28;20028;-59
2022/01/18 05:31:51;;;;;;;8.45;3.30;;;52.10;2227.20;;;;;;5030777;28;20037;-58
2022/01/18 05:34:17;;;;;;;10.57;4.50;;;52.00;2227.20;;;;;;5030971;28;20488;-60
2022/01/18 05:36:43;;;;;;;18.73;7.43;;;52.00;2227.20;;;;;;5030874;28;20112;-58
2022/01/18 05:39:11;;;;;;;12.18;4.53;;;52.00;2227.20;;;;;;5030586;28;20026;-63
2022/01/18 05:41:39;;;;;;;11.75;6.10;;;52.00;2227.20;;;;;;5031060;28;20486;-61
2022/01/18 05:44:06;;;;;;;21.20;10.23;;;52.00;2227.20;;;;;;5030578;28;20025;-57
2022/01/18 05:46:32;;;;;;;10.20;6.22;;;52.10;2227.20;;;;;;5029765;28;20038;-62
2022/01/18 05:49:01;;;;;;;9.27;4.72;;;52.10;2227.20;;;;;;5030562;28;20101;-58
2022/01/18 05:51:28;;;;;;;9.63;4.13;;;52.10;2227.20;;;;;;5030653;28;20035;-63
2022/01/18 05:53:54;;;;;;;20.08;6.97;;;51.90;2227.20;;;;;;5030812;28;20100;-61
2022/01/18 05:56:19;;;;;;;13.98;6.25;;;51.90;2227.20;;;;;;5030563;28;20447;-58
2022/01/18 05:58:48;;;;;;;16.73;6.82;;;51.80;2227.20;;;;;;5030438;28;20029;-62
2022/01/18 06:01:14;;;;;;;11.10;5.35;;;51.80;2227.20;;;;;;5030552;28;20029;-61
2022/01/18 06:04:08;;;;;;;10.07;4.55;;;51.80;2227.20;;;;;;5030311;28;20167;-62
2022/01/18 06:06:54;;;;;;;16.77;8.27;;;51.80;2227.20;;;;;;5030468;28;20021;-63
2022/01/18 06:09:21;;;;;;;11.18;5.82;;;51.80;2227.20;;;;;;5030283;28;20068;-63
2022/01/18 06:11:47;;;;;;;9.13;4.97;;;51.90;2227.20;;;;;;5030164;28;20026;-62
2022/01/18 06:14:13;;;;;;;7.45;5.03;;;51.80;2227.20;;;;;;5030262;28;20025;-61
2022/01/18 06:16:39;;;;;;;13.05;7.85;;;51.80;2227.20;;;;;;5030171;28;20026;-61
2022/01/18 06:19:04;;;;;;;11.98;6.22;;;51.90;2227.20;;;;;;5030362;28;20026;-59
2022/01/18 06:21:30;;;;;;;13.80;7.63;;;52.00;2227.20;;;;;;5030274;28;20036;-61
2022/01/18 06:23:56;;;;;;;12.52;5.63;;;51.90;2227.20;;;;;;5029970;28;20072;-60
2022/01/18 06:26:22;;;;;;;8.93;4.50;;;51.90;2227.20;;;;;;5030361;28;20041;-62
2022/01/18 06:28:47;;;;;;;12.80;6.07;;;52.00;2227.20;;;;;;5030034;28;20032;-64
2022/01/18 06:31:14;;;;;;;145.50;65.45;;;52.00;2227.20;;;;;;5029968;28;20033;-63
2022/01/18 06:33:39;;;;;;;45.22;17.90;;;52.10;2227.20;;;;;;5029996;28;20036;-62
2022/01/18 06:36:06;;;;;;;26.10;12.57;;;52.10;2227.20;;;;;;5030216;28;20033;-61
2022/01/18 06:38:32;;;;;;;27.65;14.93;;;52.10;2227.20;;;;;;5030323;28;20040;-63
2022/01/18 06:40:57;;;;;;;15.55;8.27;;;76.80;2227.20;;;;;;5038463;28;20033;-63
2022/01/18 06:43:23;;;;;;;16.75;7.82;;;76.80;2227.20;;;;;;5039313;28;20029;-66
2022/01/18 06:45:49;;;;;;;35.00;15.68;;;52.10;2227.20;;;;;;5041374;28;20429;-65
2022/01/18 06:48:15;;;;;;;36.70;19.50;;;76.80;2227.20;;;;;;5039736;28;20029;-69
2022/01/18 06:50:41;;;;;;;14.50;7.85;;;76.80;2227.20;;;;;;5041493;28;20029;-64
2022/01/18 06:53:06;;;;;;;9.55;5.97;;;76.80;2227.20;;;;;;5042183;28;20030;-67
2022/01/18 06:55:32;;;;;;;8.23;4.97;;;76.90;2227.20;;;;;;5039528;28;20437;-64
2022/01/18 06:57:58;;;;;;;7.95;3.65;;;76.90;2227.20;;;;;;5035780;28;20380;-68
2022/01/18 07:00:24;;;;;;;9.13;3.50;;;77.00;2227.20;;;;;;5033691;28;20029;-67
2022/01/18 07:02:50;;;;;;;10.82;4.13;;;77.00;2227.20;;;;;;5033635;28;20029;-66
2022/01/18 07:05:15;;;;;;;15.38;9.10;;;77.00;2227.20;;;;;;5032157;28;20075;-65
2022/01/18 07:07:42;;;;;;;11.35;4.53;;;77.10;2227.20;;;;;;5033686;28;20519;-66
2022/01/18 07:10:09;;;;;;;25.45;11.90;;;77.20;2227.20;;;;;;5033602;28;20056;-65
2022/01/18 07:12:35;;;;;;;9.68;5.97;;;77.10;2227.20;;;;;;5033738;28;20422;-66
2022/01/18 07:15:08;;;;;;;21.60;10.15;;;77.20;2227.20;;;;;;5033574;28;20098;-66
2022/01/18 07:17:35;;;;;;;11.00;5.50;;;77.30;2227.20;;;;;;5033879;28;20071;-66
2022/01/18 07:20:01;;;;;;;12.27;6.70;;;77.30;2227.20;;;;;;5033444;28;20034;-66
2022/01/18 07:22:27;;;;;;;13.80;9.38;;;77.30;2227.20;;;;;;5033311;28;20148;-65
2022/01/18 07:24:57;;;;;;;17.27;10.02;;;77.20;2227.20;;;;;;5033799;28;20112;-66
2022/01/18 07:27:23;;;;;;;10.60;5.20;;;77.20;2227.20;;;;;;5033545;28;20395;-66
2022/01/18 07:29:49;;;;;;;23.23;10.05;;;77.30;2227.20;;;;;;5033289;28;20025;-65
2022/01/18 07:32:15;;;;;;;11.23;5.65;;;77.40;2227.20;;;;;;5033109;28;20028;-65
2022/01/18 07:34:49;;;;;;;9.85;4.65;;;77.40;2227.20;;;;;;5033133;28;20030;-67
2022/01/18 07:37:15;;;;;;;13.23;4.13;;;77.40;2227.20;;;;;;5033386;28;20021;-66
2022/01/18 07:39:40;;;;;;;19.77;8.07;;;77.50;2227.20;;;;;;5033087;28;20132;-64
2022/01/18 07:42:06;;;;;;;15.88;7.13;;;77.50;2227.20;;;;;;5033015;28;20028;-65
2022/01/18 07:44:32;;;;;;;12.18;6.60;;;77.50;2227.20;;;;;;5032805;28;20045;-63
2022/01/18 07:46:58;;;;;;;6.45;3.72;;;77.70;2227.20;;;;;;5032850;28;20365;-65
2022/01/18 07:49:24;;;;;;;15.13;11.30;;;77.70;2227.20;;;;;;5032762;28;20028;-65
2022/01/18 07:51:50;;;;;;;9.77;4.57;;;77.70;2227.20;;;;;;5032774;28;20052;-63
2022/01/18 07:54:17;;;;;;;10.50;3.50;;;77.70;2227.20;;;;;;5031734;28;20040;-65
2022/01/18 07:56:44;;;;;;;10.65;3.35;;;77.70;2227.20;;;;;;5032849;28;20099;-63
2022/01/18 07:59:11;;;;;;;6.78;2.35;;;77.70;2227.20;;;;;;5032543;28;20033;-65
2022/01/18 08:01:37;;;;;;;12.43;5.90;;;102.50;2227.20;;;;;;5032539;28;20064;-63
2022/01/18 08:04:03;;;;;;;6.05;2.83;;;102.60;2227.20;;;;;;5032449;28;20037;-66
2022/01/18 08:06:29;;;;;;;11.32;4.72;;;102.80;2227.20;;;;;;5032592;28;20121;-65
2022/01/18 08:08:55;;;;;;;11.77;5.32;;;128.20;2252.80;;;;;;5031695;28;20047;-65
2022/01/18 08:11:21;;;;;;;16.02;10.05;;;154.30;2048.00;;;;;;5032468;28;20022;-65
2022/01/18 08:13:49;;;;;;;14.57;7.00;;;205.30;1817.60;;;;;;5032210;28;20029;-64
2022/01/18 08:19:00;;;;;;;6.53;3.00;;;179.60;1868.80;;;;;;5032482;28;20390;-67
2022/01/18 08:21:26;;;;;;;16.42;10.93;;;154.20;1945.60;;;;;;5032640;28;20057;-65
2022/01/18 08:23:52;;;;;;;11.43;6.30;;;153.70;1971.20;;;;;;5032224;28;20509;-66
2022/01/18 08:26:19;;;;;;;36.22;21.65;;;128.80;1996.80;;;;;;5032170;28;20037;-66
2022/01/18 08:28:45;;;;;;;9.27;4.80;;;128.70;2022.40;;;;;;5032220;28;20021;-65
2022/01/18 08:31:11;;;;;;;41.70;25.05;;;128.80;2048.00;;;;;;5031797;28;20029;-66
2022/01/18 08:33:37;;;;;;;10.95;4.93;;;128.60;2048.00;;;;;;5032210;28;20120;-63
2022/01/18 08:36:06;;;;;;;16.40;10.68;;;128.70;2048.00;;;;;;5032014;28;20029;-63
2022/01/18 08:38:35;;;;;;;8.38;5.25;;;128.40;2099.20;;;;;;5030998;28;20021;-63
2022/01/18 08:41:02;;;;;;;7.55;4.70;;;128.40;2099.20;;;;;;5031884;28;20026;-64
2022/01/18 08:43:31;;;;;;;6.78;4.13;;;128.50;2124.80;;;;;;5031810;28;20076;-65
2022/01/18 08:45:58;;;;;;;3.92;2.58;;;128.50;2099.20;;;;;;5031799;28;20373;-65
2022/01/18 08:48:24;;;;;;;9.30;4.85;;;128.40;2150.40;;;;;;5032064;28;20029;-65
2022/01/18 08:50:50;;;;;;;11.30;6.45;;;128.30;2150.40;;;;;;5031833;28;20554;-64
2022/01/18 08:53:16;;;;;;;13.75;8.32;;;128.30;2176.00;;;;;;5031889;28;20030;-65
2022/01/18 08:55:41;;;;;;;12.18;5.68;;;128.40;2150.40;;;;;;5031547;28;20087;-65
2022/01/18 08:58:08;;;;;;;17.30;10.88;;;128.30;2150.40;;;;;;5031454;28;20464;-64
2022/01/18 09:00:35;;;;;;;15.55;8.55;;;128.30;2201.60;;;;;;5031277;28;20037;-63
2022/01/18 09:03:01;;;;;;;15.80;8.13;;;128.10;2252.80;;;;;;5031797;28;20033;-65
2022/01/18 09:05:27;;;;;;;14.00;4.78;;;103.30;2227.20;;;;;;5031509;28;20040;-62
2022/01/18 09:07:53;;;;;;;13.18;10.88;;;103.10;2227.20;;;;;;5031406;28;20139;-65
2022/01/18 09:10:23;;;;;;;10.63;4.38;;;103.10;2227.20;;;;;;5031414;28;20033;-66
2022/01/18 09:12:49;;;;;;;6.88;3.90;;;128.40;2252.80;;;;;;5031135;28;20025;-65
2022/01/18 09:15:15;;;;;;;7.57;3.83;;;128.30;2252.80;;;;;;5031452;28;20026;-63
2022/01/18 09:17:41;;;;;;;8.77;4.25;;;128.80;2227.20;;;;;;5031031;28;20468;-66
2022/01/18 09:20:10;;;;;;;9.70;5.72;;;179.50;1996.80;;;;;;5031172;28;20029;-65
2022/01/18 09:22:38;;;;;;;10.85;5.30;;;230.60;1792.00;;;;;;5030657;28;20434;-66
2022/01/18 09:25:07;;;;;;;7.10;3.30;;;205.30;1766.40;;;;;;5031287;28;20088;-63
2022/01/18 09:27:33;;;;;;;8.07;4.40;;;205.50;1740.80;;;;;;5031211;28;20072;-65
2022/01/18 09:29:59;;;;;;;7.65;4.45;;;230.60;1715.20;;;;;;5029534;28;20081;-62
2022/01/18 09:32:25;;;;;;;9.52;3.90;;;230.50;1689.60;;;;;;5030903;28;20057;-65
2022/01/18 09:34:52;;;;;;;8.38;4.72;;;205.10;1689.60;;;;;;5030782;28;20033;-66
2022/01/18 09:37:18;;;;;;;9.80;3.00;;;179.70;1766.40;;;;;;5030887;28;20025;-65
2022/01/18 09:39:43;;;;;;;8.65;4.50;;;179.20;1843.20;;;;;;5030981;28;20090;-64
2022/01/18 09:42:11;;;;;;;9.60;3.45;;;154.40;1843.20;;;;;;5030659;28;20053;-62
2022/01/18 09:44:37;;;;;;;9.77;5.90;;;154.10;1868.80;;;;;;5030615;28;20407;-60
2022/01/18 09:47:04;;;;;;;9.98;5.05;;;154.20;1894.40;;;;;;5030922;28;20031;-66
2022/01/18 09:49:30;;;;;;;10.98;5.75;;;154.20;1894.40;;;;;;5030530;28;20025;-64
2022/01/18 09:51:56;;;;;;;12.20;6.55;;;153.90;1920.00;;;;;;5030620;28;20071;-64
2022/01/18 09:54:21;;;;;;;9.15;4.00;;;153.80;1945.60;;;;;;5030409;28;20402;-64
2022/01/18 09:56:47;;;;;;;13.45;4.95;;;153.80;1945.60;;;;;;5030375;28;20033;-65
2022/01/18 09:59:13;;;;;;;8.82;4.53;;;153.90;1945.60;;;;;;5030577;28;20037;-65
2022/01/18 10:01:39;;;;;;;12.30;6.32;;;153.80;1920.00;;;;;;5030111;28;20033;-64
2022/01/18 10:04:17;;;;;;;9.32;5.80;;;153.80;1920.00;;;;;;5030538;28;20095;-64
2022/01/18 10:06:46;;;;;;;8.32;4.25;;;153.90;1894.40;;;;;;5030322;28;20479;-63
2022/01/18 10:09:13;;;;;;;8.95;5.30;;;153.80;1894.40;;;;;;5030449;28;20108;-65
2022/01/18 10:12:01;;;;;;;19.55;6.03;;;153.90;1920.00;;;;;;5030167;28;20033;-63
2022/01/18 10:14:29;;;;;;;11.27;4.65;;;154.00;1920.00;;;;;;5030520;28;20025;-65
2022/01/18 10:16:55;;;;;;;8.82;4.18;;;153.90;1920.00;;;;;;5030590;28;20057;-65
2022/01/18 10:19:42;;;;;;;10.13;4.60;;;153.90;1920.00;;;;;;5030223;28;20490;-64
2022/01/18 10:22:14;;;;;;;8.48;3.80;;;154.00;1920.00;;;;;;5030100;28;20029;-62
2022/01/18 10:24:41;;;;;;;9.27;5.20;;;153.80;1920.00;;;;;;5030066;28;20464;-65
2022/01/18 10:27:07;;;;;;;12.45;4.30;;;153.90;1920.00;;;;;;5030446;28;20021;-65
2022/01/18 10:29:36;;;;;;;11.48;3.30;;;153.80;1894.40;;;;;;5030250;28;20490;-63
2022/01/18 10:37:20;;;;;;;7.07;3.80;;;153.90;1920.00;;;;;;5037164;28;20036;-69
2022/01/18 10:39:54;;;;;;;12.65;4.80;;;153.80;1920.00;;;;;;5036895;28;20029;-65
2022/01/18 10:42:39;;;;;;;10.25;6.35;;;153.60;1945.60;;;;;;5036718;28;20052;-65
2022/01/18 10:45:38;;;;;;;15.05;7.75;;;128.90;1945.60;;;;;;5036600;28;20029;-65
2022/01/18 10:48:13;;;;;;;7.47;3.78;;;153.70;1920.00;;;;;;5036318;28;20044;-65
2022/01/18 10:50:42;;;;;;;14.63;6.25;;;153.80;1920.00;;;;;;5036438;28;20025;-64
2022/01/18 10:53:21;;;;;;;13.02;4.15;;;153.60;1894.40;;;;;;5036419;28;20017;-64
2022/01/18 10:55:50;;;;;;;13.10;3.95;;;153.90;1894.40;;;;;;5036542;28;20151;-64
2022/01/18 10:58:19;;;;;;;6.80;4.72;;;153.90;1868.80;;;;;;5036557;28;20032;-62
2022/01/18 11:00:45;;;;;;;8.23;3.53;;;153.90;1868.80;;;;;;5036348;28;20124;-65
2022/01/18 11:03:11;;;;;;;13.35;9.57;;;153.60;1868.80;;;;;;5036498;28;20031;-66
2022/01/18 11:05:39;;;;;;;8.50;4.10;;;153.70;1894.40;;;;;;5036513;28;20116;-60
2022/01/18 11:08:06;;;;;;;10.05;5.35;;;153.60;1894.40;;;;;;5036387;28;20104;-61
2022/01/18 11:10:39;;;;;;;18.13;7.32;;;153.80;1868.80;;;;;;5037185;28;20040;-65
2022/01/18 11:13:17;;;;;;;7.78;4.63;;;153.70;1868.80;;;;;;5036786;28;20451;-65
2022/01/18 11:15:48;;;;;;;9.50;3.70;;;153.80;1868.80;;;;;;5036536;28;20025;-64
2022/01/18 11:18:25;;;;;;;6.68;4.20;;;153.90;1868.80;;;;;;5036912;28;20032;-66
2022/01/18 11:20:52;;;;;;;13.38;4.57;;;153.80;1868.80;;;;;;5037267;28;20379;-65
2022/01/18 11:23:21;;;;;;;6.93;3.55;;;153.90;1868.80;;;;;;5037263;28;20025;-65
2022/01/18 11:25:49;;;;;;;10.57;4.85;;;154.00;1868.80;;;;;;5037173;28;20033;-61
2022/01/18 11:28:16;;;;;;;7.88;3.53;;;154.10;1894.40;;;;;;5036488;28;20029;-64
2022/01/18 11:30:45;;;;;;;15.00;4.03;;;154.00;1843.20;;;;;;5036129;28;20041;-64
2022/01/18 11:33:13;;;;;;;7.40;3.42;;;153.80;1868.80;;;;;;5036207;28;20025;-63
2022/01/18 11:36:13;;;;;;;18.40;12.00;;;153.70;1868.80;;;;;;5036172;28;20425;-65
2022/01/18 11:38:54;;;;;;;9.75;3.55;;;153.60;1894.40;;;;;;5033919;28;20116;-65
2022/01/18 11:41:31;;;;;;;18.83;9.82;;;128.80;1894.40;;;;;;5034034;28;20079;-72
2022/01/18 11:43:59;;;;;;;11.55;5.10;;;153.60;1920.00;;;;;;5032428;28;20436;-62
2022/01/18 11:46:40;;;;;;;29.63;19.38;;;153.70;1894.40;;;;;;5030883;28;20115;-64
2022/01/18 11:49:07;;;;;;;13.98;6.93;;;153.70;1868.80;;;;;;5030870;28;20472;-64
2022/01/18 11:51:49;;;;;;;13.30;6.30;;;154.00;1894.40;;;;;;5030781;28;20025;-63
2022/01/18 11:54:33;;;;;;;19.67;10.73;;;154.00;1894.40;;;;;;5030703;28;20049;-64
2022/01/18 11:57:00;;;;;;;19.75;10.52;;;154.20;1868.80;;;;;;5030564;28;20041;-65
2022/01/18 11:59:35;;;;;;;16.85;7.95;;;154.20;1843.20;;;;;;5030562;28;20071;-60
2022/01/18 12:02:03;;;;;;;12.10;6.93;;;154.10;1843.20;;;;;;5030334;28;20037;-64
2022/01/18 12:04:40;;;;;;;7.88;3.20;;;154.10;1817.60;;;;;;5030162;28;20033;-65
2022/01/18 12:07:07;;;;;;;9.30;5.40;;;153.80;1817.60;;;;;;5030354;28;20081;-64
2022/01/18 12:09:41;;;;;;;16.70;8.35;;;153.80;1843.20;;;;;;5030547;28;20071;-65
2022/01/18 12:12:39;;;;;;;10.77;4.18;;;153.90;1843.20;;;;;;5030393;28;20417;-59
2022/01/18 12:15:26;;;;;;;11.63;4.40;;;153.90;1817.60;;;;;;5027512;28;20040;-67
2022/01/18 12:18:02;;;;;;;14.30;6.82;;;153.90;1843.20;;;;;;5032532;28;20391;-66
2022/01/18 12:20:37;;;;;;;49.35;23.40;;;154.10;1843.20;;;;;;5032460;28;20029;-60
2022/01/18 12:23:06;;;;;;;23.50;11.13;;;154.00;1817.60;;;;;;5032330;28;20064;-64
2022/01/18 12:25:35;;;;;;;36.17;18.92;;;153.90;1817.60;;;;;;5032235;28;20052;-63
2022/01/18 12:28:35;;;;;;;13.93;7.47;;;153.80;1843.20;;;;;;5032157;28;20144;-62
2022/01/18 12:31:17;;;;;;;17.52;9.73;;;153.90;1868.80;;;;;;5031838;28;20025;-64
2022/01/18 12:33:44;;;;;;;8.30;4.18;;;154.00;1868.80;;;;;;5032260;28;20057;-64
2022/01/18 12:36:29;;;;;;;44.42;24.38;;;154.00;1843.20;;;;;;5031952;28;20433;-65
2022/01/18 12:39:03;;;;;;;17.52;8.30;;;154.20;1843.20;;;;;;5032369;28;20029;-62
2022/01/18 12:41:44;;;;;;;24.70;12.68;;;154.20;1817.60;;;;;;5039696;28;20033;-66
2022/01/18 12:44:22;;;;;;;19.65;9.45;;;154.30;1792.00;;;;;;5041978;28;20025;-65
2022/01/18 12:46:58;;;;;;;18.83;12.77;;;154.40;1817.60;;;;;;5041733;28;20022;-64
2022/01/18 12:49:25;;;;;;;21.13;10.35;;;179.20;1792.00;;;;;;5041456;28;20037;-62
2022/01/18 12:52:00;;;;;;;9.75;5.57;;;179.30;1817.60;;;;;;5032609;28;20030;-66
2022/01/18 12:54:40;;;;;;;14.55;8.20;;;179.40;1817.60;;;;;;5031752;28;20026;-64
2022/01/18 12:57:16;;;;;;;8.63;5.28;;;179.40;1766.40;;;;;;5031474;28;20017;-65
2022/01/18 13:00:07;;;;;;;10.35;4.55;;;179.30;1766.40;;;;;;5031354;28;20030;-65
2022/01/18 13:02:33;;;;;;;10.80;5.38;;;179.30;1766.40;;;;;;5031596;28;20126;-63
2022/01/18 13:05:03;;;;;;;17.98;7.20;;;179.30;1766.40;;;;;;5031408;28;20045;-63
2022/01/18 13:07:28;;;;;;;18.65;7.70;;;179.30;1766.40;;;;;;5031246;28;20492;-66
2022/01/18 13:10:12;;;;;;;16.98;10.05;;;179.40;1792.00;;;;;;5031450;28;20083;-63
2022/01/18 13:12:39;;;;;;;19.25;8.63;;;179.60;1766.40;;;;;;5031348;28;20383;-65
2022/01/18 13:15:07;;;;;;;19.70;10.25;;;179.40;1766.40;;;;;;5031521;28;20033;-65
2022/01/18 13:23:15;;;;;;;14.15;7.90;;;179.40;1792.00;;;;;;5031288;28;20024;-64
2022/01/18 13:25:56;;;;;;;13.23;5.78;;;179.20;1792.00;;;;;;5031021;28;20037;-63
2022/01/18 13:28:37;;;;;;;14.32;7.45;;;154.50;1817.60;;;;;;5031168;28;20041;-64
2022/01/18 13:31:20;;;;;;;13.60;5.45;;;179.40;1817.60;;;;;;5030871;28;20132;-61
2022/01/18 13:33:58;;;;;;;68.47;14.80;;;179.40;1792.00;;;;;;5030961;28;20036;-65
2022/01/18 13:36:26;;;;;;;33.63;19.75;;;179.60;1792.00;;;;;;5030831;28;20030;-63
2022/01/18 13:38:52;;;;;;;16.27;9.35;;;180.00;1792.00;;;;;;5030721;28;20399;-60
2022/01/18 13:41:19;;;;;;;10.43;5.18;;;179.90;1766.40;;;;;;5030815;28;20030;-64